Time;durP1;ratioP1;P1;durP2;ratioP2;P2;SDS_P1;SDS_P2;PMS_P1;PMS_P2;Temp;Humidity;BMP_temperature;BMP_pressure;BME280_temperature;BME280_humidity;BME280_pressure;Samples;Min_cycle;Max_cycle;Signal;HPM_P1;HPM_P2
2023/08/09 00:01:51;;;;;;;2.83;1.40;;;;;;;13.49;87.42;100839.34;6003960;29;20851;-68
2023/08/09 00:05:12;;;;;;;1.97;1.80;;;;;;;13.48;87.72;100843.03;6010735;29;20235;-66
2023/08/09 00:08:33;;;;;;;1.97;1.43;;;;;;;13.62;87.23;100840.63;5989715;29;20234;-66
2023/08/09 00:11:55;;;;;;;6.27;1.80;;;;;;;13.47;87.63;100838.66;6009259;29;20519;-66
2023/08/09 00:15:16;;;;;;;2.50;1.13;;;;;;;13.49;87.40;100836.63;6009267;29;20234;-67
2023/08/09 00:18:37;;;;;;;2.00;1.40;;;;;;;13.47;87.51;100833.22;6004421;29;20541;-67
2023/08/09 00:21:58;;;;;;;3.13;1.37;;;;;;;13.32;87.74;100837.47;6015178;29;20273;-67
2023/08/09 00:25:19;;;;;;;4.77;2.10;;;;;;;13.31;87.98;100830.34;6019049;29;20235;-67
2023/08/09 00:28:42;;;;;;;1.67;1.57;;;;;;;13.34;88.05;100843.59;6013851;29;20234;-66
2023/08/09 00:32:03;;;;;;;5.43;2.10;;;;;;;13.40;88.00;100833.00;6010318;29;20809;-67
2023/08/09 00:35:24;;;;;;;4.03;1.70;;;;;;;13.48;87.91;100841.19;6005891;29;20644;-67
2023/08/09 00:38:45;;;;;;;2.50;1.63;;;;;;;13.44;88.00;100841.66;5998593;29;20242;-66
2023/08/09 00:42:06;;;;;;;1.27;1.17;;;;;;;13.30;87.81;100855.75;6013169;29;20260;-66
2023/08/09 00:45:28;;;;;;;1.67;1.00;;;;;;;13.31;88.16;100842.03;6014136;29;20278;-67
2023/08/09 00:48:50;;;;;;;2.83;1.40;;;;;;;13.17;88.48;100852.56;6012354;29;20242;-67
2023/08/09 00:52:12;;;;;;;1.13;0.93;;;;;;;13.28;88.73;100855.03;6010957;29;20474;-68
2023/08/09 00:55:33;;;;;;;3.00;1.27;;;;;;;13.25;89.01;100848.06;6012746;29;20633;-66
2023/08/09 00:58:54;;;;;;;5.63;1.80;;;;;;;13.23;89.09;100847.38;6011909;29;20238;-67
2023/08/09 01:02:16;;;;;;;2.77;1.20;;;;;;;13.24;88.97;100856.34;6009822;29;20609;-66
2023/08/09 01:05:46;;;;;;;2.13;1.27;;;;;;;13.20;88.91;100857.66;5992116;29;20234;-67
2023/08/09 01:09:15;;;;;;;3.27;1.53;;;;;;;13.09;89.42;100858.75;6005878;29;20254;-66
2023/08/09 01:12:41;;;;;;;1.47;1.33;;;;;;;13.13;89.43;100854.72;6019323;29;20234;-66
2023/08/09 01:16:02;;;;;;;3.30;1.80;;;;;;;13.06;89.94;100855.50;6016046;29;20713;-67
2023/08/09 01:19:38;;;;;;;2.40;1.33;;;;;;;13.11;89.84;100870.28;6012597;29;20231;-65
2023/08/09 01:23:02;;;;;;;2.07;1.30;;;;;;;13.12;89.91;100877.38;5993655;29;20602;-67
2023/08/09 01:26:25;;;;;;;13.70;2.10;;;;;;;13.08;90.19;100862.44;6012823;29;20260;-66
2023/08/09 01:29:45;;;;;;;1.57;1.27;;;;;;;13.13;90.17;100870.97;6027608;29;20237;-66
2023/08/09 01:33:06;;;;;;;4.47;1.57;;;;;;;13.04;90.43;100861.03;6013648;29;20246;-68
2023/08/09 01:36:33;;;;;;;1.63;0.93;;;;;;;12.95;91.29;100871.91;6019060;29;20249;-66
2023/08/09 01:39:57;;;;;;;1.17;1.07;;;;;;;12.97;91.31;100867.19;6013685;29;20235;-67
2023/08/09 01:43:21;;;;;;;1.87;1.20;;;;;;;13.06;91.20;100869.84;6021474;29;20230;-65
2023/08/09 01:46:43;;;;;;;1.90;1.10;;;;;;;13.06;91.80;100864.44;6006388;29;20241;-66
2023/08/09 01:50:05;;;;;;;4.50;2.10;;;;;;;13.04;91.54;100869.16;6009658;29;20612;-66
2023/08/09 01:53:26;;;;;;;2.43;1.20;;;;;;;12.91;92.12;100865.09;5998265;29;20544;-66
2023/08/09 01:56:47;;;;;;;2.07;0.93;;;;;;;13.01;92.43;100865.88;6009173;29;20262;-66
2023/08/09 02:00:11;;;;;;;6.90;1.97;;;;;;;12.90;92.47;100864.25;5964472;29;20239;-66
2023/08/09 02:03:34;;;;;;;1.63;0.97;;;;;;;12.90;92.62;100863.38;6010723;29;20262;-66
2023/08/09 02:06:55;;;;;;;3.70;1.07;;;;;;;13.06;92.85;100869.84;5993298;29;20329;-66
2023/08/09 02:10:15;;;;;;;3.97;1.20;;;;;;;12.95;92.55;100874.63;5995807;29;20243;-66
2023/08/09 02:13:37;;;;;;;2.03;0.90;;;;;;;13.04;91.98;100877.28;6010285;29;20234;-66
2023/08/09 02:17:00;;;;;;;2.23;1.50;;;;;;;12.98;92.30;100877.00;6007794;29;20329;-66
2023/08/09 02:20:20;;;;;;;10.37;1.73;;;;;;;13.02;92.09;100870.28;5999525;29;20246;-66
2023/08/09 02:23:41;;;;;;;5.97;1.83;;;;;;;13.04;92.31;100874.56;6009128;29;20231;-66
2023/08/09 02:27:02;;;;;;;2.77;1.60;;;;;;;13.02;92.62;100870.28;6012619;29;20227;-67
2023/08/09 02:30:23;;;;;;;2.23;2.03;;;;;;;12.92;92.54;100869.50;6016943;29;20238;-67
2023/08/09 02:33:45;;;;;;;2.20;1.33;;;;;;;13.07;91.97;100873.44;5999743;29;20281;-66
2023/08/09 02:37:08;;;;;;;1.70;1.40;;;;;;;13.16;92.02;100883.34;6014133;29;20246;-66
2023/08/09 02:40:31;;;;;;;7.53;2.07;;;;;;;13.10;92.11;100879.38;6008690;29;20231;-66
2023/08/09 02:43:52;;;;;;;2.37;1.33;;;;;;;13.09;92.40;100880.41;5971374;29;20242;-67
2023/08/09 02:47:12;;;;;;;6.37;1.47;;;;;;;12.96;92.62;100879.88;6011976;29;20239;-65
2023/08/09 02:50:36;;;;;;;2.57;1.47;;;;;;;13.07;92.61;100882.41;5994542;29;20226;-66
2023/08/09 02:54:00;;;;;;;1.73;1.53;;;;;;;13.02;92.72;100879.25;6007321;29;20250;-66
2023/08/09 02:57:21;;;;;;;6.27;2.30;;;;;;;12.99;93.02;100873.31;6015887;29;20239;-66
2023/08/09 03:00:42;;;;;;;3.77;1.90;;;;;;;12.84;93.05;100873.81;6002688;29;20641;-66
2023/08/09 03:04:03;;;;;;;1.00;0.90;;;;;;;12.83;93.22;100887.47;6005542;29;20665;-66
2023/08/09 03:07:27;;;;;;;9.57;2.80;;;;;;;12.85;93.15;100888.19;6009694;29;20239;-66
2023/08/09 03:10:48;;;;;;;3.33;1.77;;;;;;;12.82;93.80;100894.75;5993864;29;20617;-67
2023/08/09 03:14:10;;;;;;;3.73;1.87;;;;;;;12.85;94.06;100899.00;6007748;29;20238;-67
2023/08/09 03:17:31;;;;;;;2.30;1.60;;;;;;;12.80;94.30;100891.34;6009772;29;20235;-66
2023/08/09 03:20:52;;;;;;;1.47;1.37;;;;;;;12.78;93.39;100893.38;6020248;29;20250;-67
2023/08/09 03:24:15;;;;;;;3.83;2.43;;;;;;;12.77;93.64;100899.75;5990149;29;20246;-67
2023/08/09 03:27:37;;;;;;;1.97;1.50;;;;;;;12.90;93.68;100891.28;6012477;29;20227;-67
2023/08/09 03:30:58;;;;;;;5.23;2.70;;;;;;;12.79;93.57;100899.59;5993404;29;20250;-68
2023/08/09 03:34:21;;;;;;;5.10;1.63;;;;;;;12.71;94.04;100897.66;5988240;29;20242;-67
2023/08/09 03:37:43;;;;;;;2.07;1.53;;;;;;;12.74;94.60;100902.78;6015346;29;20230;-66
2023/08/09 03:41:05;;;;;;;3.27;1.90;;;;;;;12.74;94.90;100902.78;5983432;29;20231;-67
2023/08/09 03:44:26;;;;;;;6.67;1.63;;;;;;;12.77;94.93;100894.34;5990035;29;20317;-67
2023/08/09 03:47:46;;;;;;;5.03;1.83;;;;;;;12.77;94.66;100913.28;6013104;29;20318;-66
2023/08/09 03:51:08;;;;;;;1.67;1.33;;;;;;;12.79;94.68;100921.25;6008413;29;20333;-67
2023/08/09 03:54:30;;;;;;;8.80;1.67;;;;;;;12.78;94.95;100914.16;5997037;29;20606;-67
2023/08/09 03:57:53;;;;;;;4.90;2.30;;;;;;;12.76;94.60;100916.16;6009056;29;20832;-67
2023/08/09 04:01:14;;;;;;;2.10;1.80;;;;;;;12.77;94.69;100916.00;5979661;29;20246;-67
2023/08/09 04:04:35;;;;;;;3.90;2.20;;;;;;;12.89;94.82;100919.38;5992605;29;20266;-67
2023/08/09 04:07:57;;;;;;;2.30;1.50;;;;;;;12.88;94.51;100914.09;6006101;29;20243;-66
2023/08/09 04:11:18;;;;;;;1.63;1.53;;;;;;;12.96;94.90;100928.56;6006275;29;20254;-66
2023/08/09 04:14:40;;;;;;;5.50;2.13;;;;;;;13.00;94.70;100918.28;5989565;29;20243;-67
2023/08/09 04:18:01;;;;;;;2.70;2.23;;;;;;;13.06;94.48;100944.81;5997941;29;20602;-67
2023/08/09 04:21:22;;;;;;;1.83;1.70;;;;;;;13.01;94.91;100936.25;6004345;29;20265;-67
2023/08/09 04:24:43;;;;;;;2.83;1.77;;;;;;;13.03;94.87;100926.13;5992882;29;20288;-67
2023/08/09 04:28:04;;;;;;;2.20;1.50;;;;;;;13.04;94.95;100947.66;6003767;29;20625;-66
2023/08/09 04:31:26;;;;;;;8.60;2.23;;;;;;;13.00;94.49;100943.50;6011947;29;20239;-66
2023/08/09 04:34:47;;;;;;;3.60;2.97;;;;;;;12.82;94.98;100948.88;5997977;29;20242;-66
2023/08/09 04:38:08;;;;;;;19.17;2.33;;;;;;;12.84;95.68;100957.69;6003686;29;20262;-66
2023/08/09 04:41:29;;;;;;;2.00;1.70;;;;;;;12.83;95.88;100947.00;6013966;29;20234;-68
2023/08/09 04:44:52;;;;;;;2.60;1.50;;;;;;;12.91;95.51;100959.81;6011570;29;20270;-68
2023/08/09 04:48:17;;;;;;;4.23;2.37;;;;;;;12.99;95.61;100963.47;5989946;29;20242;-67
2023/08/09 04:51:38;;;;;;;2.20;1.40;;;;;;;12.99;94.95;100966.19;6013943;29;20234;-67
2023/08/09 04:54:59;;;;;;;2.57;1.63;;;;;;;13.02;95.49;100965.84;5991321;29;20238;-68
2023/08/09 04:58:21;;;;;;;1.70;1.40;;;;;;;13.30;95.39;100974.88;5999031;29;20230;-67
2023/08/09 05:01:42;;;;;;;1.60;1.50;;;;;;;13.26;95.47;100968.91;6001156;29;20238;-69
2023/08/09 05:05:06;;;;;;;2.30;2.10;;;;;;;13.41;94.91;100969.25;5997599;29;20706;-66
2023/08/09 05:08:27;;;;;;;2.70;1.87;;;;;;;13.39;95.28;100977.50;6001420;29;20261;-67
2023/08/09 05:11:48;;;;;;;3.37;1.57;;;;;;;13.55;94.91;100985.84;6002041;29;20246;-66
2023/08/09 05:15:10;;;;;;;3.60;1.47;;;;;;;13.64;94.81;100978.66;5998030;29;20606;-67
2023/08/09 05:18:30;;;;;;;4.13;2.27;;;;;;;13.60;94.79;100978.09;5996307;29;20239;-68
2023/08/09 05:21:53;;;;;;;3.03;1.80;;;;;;;13.76;94.57;100999.09;6002193;29;20788;-67
2023/08/09 05:25:14;;;;;;;4.20;1.20;;;;;;;13.77;94.17;100989.13;6009936;29;20246;-66
2023/08/09 05:28:35;;;;;;;1.57;0.83;;;;;;;13.93;93.69;100997.41;5998402;29;20469;-65
2023/08/09 05:31:56;;;;;;;3.90;1.70;;;;;;;14.04;93.30;100995.28;6004211;29;20653;-65
2023/08/09 05:35:16;;;;;;;3.43;1.63;;;;;;;13.87;93.13;101009.69;5995429;29;20234;-65
2023/08/09 05:38:39;;;;;;;4.47;1.40;;;;;;;13.88;93.24;101008.69;5976340;29;20236;-67
2023/08/09 05:42:00;;;;;;;3.67;2.40;;;;;;;13.93;93.32;101002.81;6002659;29;20235;-66
2023/08/09 05:45:22;;;;;;;2.33;1.47;;;;;;;14.06;93.20;101004.13;6003471;29;20257;-67
2023/08/09 05:48:42;;;;;;;4.40;1.83;;;;;;;14.42;92.54;101004.97;6000157;29;20230;-65
2023/08/09 05:52:04;;;;;;;1.87;1.20;;;;;;;14.41;92.32;101006.00;6014711;29;20230;-66
2023/08/09 05:55:25;;;;;;;1.27;1.10;;;;;;;14.88;91.35;101018.19;5997857;29;20239;-66
2023/08/09 05:58:46;;;;;;;4.10;2.00;;;;;;;14.59;90.98;101008.66;6001062;29;20335;-66
2023/08/09 06:02:08;;;;;;;2.27;1.67;;;;;;;14.78;90.96;101016.59;6018913;29;20235;-65
2023/08/09 06:05:28;;;;;;;1.50;1.10;;;;;;;14.62;90.44;101017.34;5984377;29;20239;-67
2023/08/09 06:08:49;;;;;;;2.47;1.00;;;;;;;14.56;90.77;101025.28;6004110;29;20231;-66
2023/08/09 06:12:12;;;;;;;1.47;1.37;;;;;;;14.55;90.79;101034.41;6010478;29;20250;-66
2023/08/09 06:15:32;;;;;;;5.13;1.77;;;;;;;14.52;90.89;101034.75;6008386;29;20325;-66
2023/08/09 06:18:54;;;;;;;4.87;1.50;;;;;;;14.63;90.03;101035.31;6015879;29;20231;-68
2023/08/09 06:22:14;;;;;;;2.53;1.47;;;;;;;14.75;90.10;101041.38;6012597;29;20661;-66
2023/08/09 06:25:35;;;;;;;3.23;1.70;;;;;;;14.76;90.18;101037.63;5999312;29;20234;-66
2023/08/09 06:28:58;;;;;;;2.23;1.90;;;;;;;14.82;89.50;101040.56;6002404;29;20250;-66
2023/08/09 06:32:19;;;;;;;3.33;1.10;;;;;;;15.21;89.21;101046.38;6012619;29;20322;-68
2023/08/09 06:35:40;;;;;;;1.93;1.20;;;;;;;15.28;89.28;101054.72;5998241;29;20629;-67
2023/08/09 06:39:01;;;;;;;1.63;1.53;;;;;;;15.45;88.35;101060.13;6003581;29;20325;-66
2023/08/09 06:42:22;;;;;;;1.47;1.17;;;;;;;15.26;88.29;101062.19;6007626;29;20612;-67
2023/08/09 06:45:48;;;;;;;2.63;1.40;;;;;;;15.13;89.13;101065.34;5990852;29;20239;-66
2023/08/09 06:49:09;;;;;;;2.70;1.13;;;;;;;15.45;88.88;101067.44;5991324;29;20334;-65
2023/08/09 06:52:31;;;;;;;1.20;1.10;;;;;;;15.30;88.65;101075.28;6003260;29;20562;-67
2023/08/09 06:55:53;;;;;;;3.63;1.40;;;;;;;15.61;88.17;101075.63;5994064;29;20628;-66
2023/08/09 06:59:13;;;;;;;4.23;1.80;;;;;;;15.56;88.39;101080.72;5994367;29;20223;-65
2023/08/09 07:02:35;;;;;;;3.97;2.13;;;;;;;15.72;88.05;101078.94;5998853;29;20238;-67
2023/08/09 07:05:56;;;;;;;3.70;1.87;;;;;;;15.40;87.94;101086.88;5990478;29;20553;-66
2023/08/09 07:09:18;;;;;;;2.47;1.53;;;;;;;15.59;87.46;101103.00;5997900;29;20248;-67
2023/08/09 07:12:39;;;;;;;1.20;0.93;;;;;;;15.87;86.83;101101.72;6015248;29;20227;-68
2023/08/09 07:16:01;;;;;;;2.07;1.00;;;;;;;16.21;85.82;101106.28;6012500;29;20282;-69
2023/08/09 07:19:23;;;;;;;5.30;1.47;;;;;;;16.10;85.38;101118.31;5998158;29;20247;-68
2023/08/09 07:22:45;;;;;;;1.80;1.60;;;;;;;15.86;85.64;101113.63;6016225;29;20309;-66
2023/08/09 07:26:06;;;;;;;1.23;0.83;;;;;;;15.94;85.95;101113.66;5989561;29;20247;-67
2023/08/09 07:29:27;;;;;;;2.83;1.37;;;;;;;16.06;85.82;101106.06;6003960;29;20334;-67
2023/08/09 07:32:48;;;;;;;2.57;1.20;;;;;;;15.78;86.11;101120.91;6019380;29;20243;-67
2023/08/09 07:36:10;;;;;;;5.43;1.57;;;;;;;15.42;86.84;101122.91;5997412;29;20317;-65
2023/08/09 07:39:31;;;;;;;3.73;1.53;;;;;;;16.06;86.12;101140.56;5999184;29;20246;-68
2023/08/09 07:42:53;;;;;;;5.37;2.00;;;;;;;16.02;86.38;101131.03;6007173;29;20239;-67
2023/08/09 07:46:13;;;;;;;3.17;1.57;;;;;;;15.75;86.65;101145.72;5997328;29;20902;-66
2023/08/09 07:49:34;;;;;;;8.20;1.73;;;;;;;15.98;86.36;101161.25;6004083;29;20235;-67
2023/08/09 07:52:57;;;;;;;2.10;1.37;;;;;;;16.03;86.25;101166.22;6016455;29;20242;-67
2023/08/09 07:56:18;;;;;;;2.43;2.23;;;;;;;16.18;86.09;101152.84;6002862;29;20246;-67
2023/08/09 07:59:38;;;;;;;6.63;1.90;;;;;;;16.60;84.62;101157.22;5996017;29;20330;-66
2023/08/09 08:03:00;;;;;;;7.73;1.77;;;;;;;16.22;85.01;101160.50;5975352;29;20554;-67
2023/08/09 08:06:21;;;;;;;7.30;1.20;;;;;;;15.76;85.23;101172.72;6014284;29;20297;-67
2023/08/09 08:09:45;;;;;;;2.63;2.07;;;;;;;15.75;86.13;101190.03;6017484;29;20242;-67
2023/08/09 08:13:06;;;;;;;3.53;2.33;;;;;;;16.06;86.66;101175.91;6018983;29;20243;-66
2023/08/09 08:16:27;;;;;;;2.37;1.40;;;;;;;16.00;86.50;101180.13;6013191;29;20776;-67
2023/08/09 08:19:47;;;;;;;4.13;1.50;;;;;;;15.83;86.82;101173.75;6002703;29;20251;-68
2023/08/09 08:23:08;;;;;;;5.30;1.73;;;;;;;16.07;87.13;101181.19;6024447;29;20481;-68
2023/08/09 08:26:33;;;;;;;1.70;1.17;;;;;;;16.31;86.94;101185.88;6015584;29;20255;-67
2023/08/09 08:29:55;;;;;;;2.80;0.90;;;;;;;16.66;86.18;101191.94;6003525;29;20238;-68
2023/08/09 08:33:15;;;;;;;2.53;1.37;;;;;;;16.29;85.92;101193.34;6013374;29;20334;-67
2023/08/09 08:36:36;;;;;;;2.60;1.33;;;;;;;16.64;85.99;101195.84;6004222;29;20251;-68
2023/08/09 08:39:57;;;;;;;3.72;1.63;;;;;;;16.76;85.58;101202.66;5990295;29;20565;-67
2023/08/09 08:43:19;;;;;;;2.10;1.17;;;;;;;16.20;86.34;101207.94;6004011;29;20250;-67
2023/08/09 08:46:41;;;;;;;4.07;1.40;;;;;;;16.59;85.82;101200.94;6002900;29;20238;-68
2023/08/09 08:50:03;;;;;;;2.23;1.40;;;;;;;17.06;84.05;101198.44;5994761;29;20260;-68
2023/08/09 08:53:24;;;;;;;2.23;2.03;;;;;;;16.99;83.32;101208.31;5993710;29;20240;-68
2023/08/09 08:56:45;;;;;;;2.53;1.43;;;;;;;17.22;82.69;101218.38;6006358;29;20235;-68
2023/08/09 09:00:11;;;;;;;3.17;1.77;;;;;;;16.64;83.61;101207.59;5991879;29;20345;-68
2023/08/09 09:03:32;;;;;;;2.07;1.80;;;;;;;17.01;83.33;101207.13;6002460;29;20513;-68
2023/08/09 09:06:53;;;;;;;1.87;1.47;;;;;;;17.46;82.74;101217.47;6017658;29;20250;-68
2023/08/09 09:10:15;;;;;;;2.23;1.30;;;;;;;17.02;82.56;101222.44;6008813;29;20231;-68
2023/08/09 09:13:35;;;;;;;5.53;2.20;;;;;;;17.01;83.04;101228.06;6004337;29;20253;-68
2023/08/09 09:16:57;;;;;;;3.43;1.37;;;;;;;17.53;82.23;101208.50;6020720;29;20226;-68
2023/08/09 09:20:21;;;;;;;4.70;1.43;;;;;;;17.87;81.59;101221.03;5999164;29;20318;-68
2023/08/09 09:23:43;;;;;;;1.83;1.43;;;;;;;17.84;81.32;101224.09;6012716;29;20275;-67
2023/08/09 09:27:04;;;;;;;1.63;1.20;;;;;;;17.46;80.77;101221.06;6010797;29;20238;-67
2023/08/09 09:30:31;;;;;;;1.17;0.90;;;;;;;17.64;79.96;101236.41;6007012;29;20230;-67
2023/08/09 09:33:53;;;;;;;2.40;1.10;;;;;;;17.58;78.65;101218.88;6010785;29;20613;-69
2023/08/09 09:37:17;;;;;;;1.27;1.17;;;;;;;17.61;78.28;101220.41;6003952;29;22943;-68
2023/08/09 09:40:38;;;;;;;3.50;1.30;;;;;;;17.98;77.53;101223.38;6002023;29;20253;-68
2023/08/09 09:43:59;;;;;;;1.40;1.13;;;;;;;18.09;76.72;101220.25;6002839;29;20265;-69
2023/08/09 09:47:25;;;;;;;2.28;1.75;;;;;;;19.13;75.12;101207.88;6014951;29;20246;-69
2023/08/09 09:50:48;;;;;;;3.85;1.50;;;;;;;19.09;73.73;101215.63;6006552;29;20238;-68
2023/08/09 09:54:09;;;;;;;3.63;2.13;;;;;;;18.63;74.98;101207.59;6001390;29;20238;-68
2023/08/09 09:57:30;;;;;;;1.52;1.42;;;;;;;18.64;75.02;101222.94;6020804;29;20242;-69
2023/08/09 10:00:55;;;;;;;4.40;1.52;;;;;;;18.59;75.13;101204.34;5999945;29;20294;-66
2023/08/09 10:04:17;;;;;;;2.35;1.13;;;;;;;18.70;74.35;101214.00;5989488;29;20234;-67
2023/08/09 10:07:43;;;;;;;2.55;1.25;;;;;;;18.55;74.03;101222.13;6014900;29;20761;-68
2023/08/09 10:11:05;;;;;;;3.75;1.38;;;;;;;18.95;73.36;101224.59;5997770;29;20241;-67
2023/08/09 10:14:29;;;;;;;7.90;2.13;;;;;;;19.16;73.08;101221.19;6008686;29;20515;-67
2023/08/09 10:17:53;;;;;;;5.32;1.80;;;;;;;18.83;73.52;101222.47;6012456;29;20242;-67
2023/08/09 10:21:17;;;;;;;3.70;1.77;;;;;;;18.75;72.03;101226.13;6010360;29;20591;-66
2023/08/09 10:24:47;;;;;;;3.05;1.55;;;;;;;19.28;70.89;101227.06;6005380;29;20231;-67
2023/08/09 10:28:08;;;;;;;1.95;1.17;;;;;;;19.43;69.07;101212.44;6006577;29;20238;-67
2023/08/09 10:31:49;;;;;;;3.50;1.10;;;;;;;19.82;64.75;101225.88;6011815;29;20621;-67
2023/08/09 10:35:16;;;;;;;6.28;1.50;;;;;;;19.76;62.72;101216.56;5995029;29;20241;-67
2023/08/09 10:38:41;;;;;;;0.80;0.73;;;;;;;19.84;62.93;101215.59;6002074;29;20242;-69
2023/08/09 10:42:06;;;;;;;2.80;1.00;;;;;;;19.74;63.32;101232.31;6021857;29;20242;-68
2023/08/09 10:45:27;;;;;;;4.05;1.90;;;;;;;19.55;64.63;101248.38;6000994;29;22881;-68
2023/08/09 10:48:52;;;;;;;2.55;2.13;;;;;;;19.29;67.91;101253.38;6008498;29;21785;-67
2023/08/09 10:52:14;;;;;;;1.70;1.10;;;;;;;19.02;68.03;101263.00;6013902;29;20345;-67
2023/08/09 10:55:35;;;;;;;2.90;1.30;;;;;;;18.90;67.85;101259.00;6003891;29;21133;-67
2023/08/09 10:59:04;;;;;;;6.07;1.45;;;;;;;18.87;66.51;101270.25;6000208;29;20279;-67
2023/08/09 11:02:25;;;;;;;2.60;1.27;;;;;;;19.42;63.33;101259.97;6001780;29;20238;-66
2023/08/09 11:05:46;;;;;;;6.78;1.80;;;;;;;20.41;59.08;101255.00;5996010;29;20231;-67
2023/08/09 11:09:08;;;;;;;4.03;1.63;;;;;;;20.48;57.40;101257.84;6009070;29;20239;-68
2023/08/09 11:12:30;;;;;;;1.42;0.98;;;;;;;20.94;56.25;101264.72;6018574;29;20234;-68
2023/08/09 11:15:53;;;;;;;2.03;1.25;;;;;;;21.37;54.51;101265.59;6004804;29;20237;-68
2023/08/09 11:19:15;;;;;;;4.55;1.92;;;;;;;21.80;54.41;101272.72;6008734;29;20243;-67
2023/08/09 11:22:36;;;;;;;4.72;1.10;;;;;;;21.55;53.45;101251.44;6011757;29;20231;-67
2023/08/09 11:25:57;;;;;;;4.97;1.92;;;;;;;21.54;53.50;101249.72;6001007;29;20235;-69
2023/08/09 11:29:19;;;;;;;1.80;1.52;;;;;;;21.37;53.37;101251.91;5997792;29;20491;-67
2023/08/09 11:32:41;;;;;;;6.90;1.30;;;;;;;21.66;53.28;101261.84;6010701;29;20226;-68
2023/08/09 11:36:03;;;;;;;4.85;1.40;;;;;;;21.83;52.59;101272.38;5979153;29;20270;-68
2023/08/09 11:39:26;;;;;;;1.98;0.98;;;;;;;21.93;51.96;101280.25;5994324;29;20250;-68
2023/08/09 11:42:46;;;;;;;1.40;0.80;;;;;;;21.60;52.01;101274.47;6006017;29;20239;-68
2023/08/09 11:46:07;;;;;;;2.53;1.35;;;;;;;21.01;52.74;101271.13;6004595;29;20238;-69
2023/08/09 11:49:31;;;;;;;2.47;1.00;;;;;;;21.75;52.41;101275.25;6003847;29;20251;-66
2023/08/09 11:52:53;;;;;;;2.78;1.17;;;;;;;22.41;52.10;101281.19;6012811;29;20238;-69
2023/08/09 11:56:18;;;;;;;2.92;1.35;;;;;;;22.04;50.79;101283.31;6002870;29;20622;-68
2023/08/09 11:59:40;;;;;;;1.35;1.02;;;;;;;22.00;50.87;101283.91;6008580;29;20298;-69
2023/08/09 12:03:05;;;;;;;1.58;1.00;;;;;;;22.76;51.93;101302.97;6004672;29;20235;-68
2023/08/09 12:06:38;;;;;;;4.03;1.08;;;;;;;23.38;52.96;101300.03;6016003;29;20234;-68
2023/08/09 12:10:02;;;;;;;1.15;0.95;;;;;;;23.54;53.12;101315.28;5995757;29;20329;-67
2023/08/09 12:13:23;;;;;;;1.40;0.98;;;;;;;22.65;54.88;101324.72;5998439;29;20235;-67
2023/08/09 12:16:44;;;;;;;1.23;1.00;;;;;;;21.29;58.92;101342.56;6001462;29;20337;-66
2023/08/09 12:20:09;;;;;;;1.60;0.60;;;;;;;19.78;61.06;101367.72;5996479;29;20766;-67
2023/08/09 12:23:32;;;;;;;3.53;1.20;;;;;;;19.40;64.79;101376.88;6004897;29;20266;-67
2023/08/09 12:26:53;;;;;;;1.50;1.02;;;;;;;19.25;66.83;101375.09;6015648;29;21119;-69
2023/08/09 12:30:14;;;;;;;1.63;0.80;;;;;;;19.11;67.41;101377.56;6001907;29;20254;-66
2023/08/09 12:33:35;;;;;;;1.17;1.08;;;;;;;19.39;63.97;101368.88;6010404;29;20238;-68
2023/08/09 12:36:56;;;;;;;2.50;1.00;;;;;;;22.92;56.15;101359.53;6011842;29;20234;-67
2023/08/09 12:40:19;;;;;;;1.20;0.57;;;;;;;24.71;48.46;101354.84;5993139;29;20242;-67
2023/08/09 12:43:40;;;;;;;1.45;0.95;;;;;;;22.00;53.07;101361.66;5998498;29;20551;-68
2023/08/09 12:47:01;;;;;;;0.68;0.63;;;;;;;21.72;53.83;101355.22;6014299;29;20250;-68
2023/08/09 12:50:24;;;;;;;1.65;0.63;;;;;;;22.98;52.97;101366.97;6006106;29;20245;-69
2023/08/09 12:53:46;;;;;;;2.08;0.77;;;;;;;23.65;52.08;101343.06;6001690;29;20258;-67
2023/08/09 12:57:08;;;;;;;3.05;0.70;;;;;;;27.62;44.69;101353.63;5995740;29;20617;-67
2023/08/09 13:00:30;;;;;;;1.27;1.08;;;;;;;28.17;41.59;101350.63;6000963;29;20245;-68
2023/08/09 13:03:51;;;;;;;1.15;0.80;;;;;;;28.43;40.67;101359.31;6011435;29;20235;-68
2023/08/09 13:07:12;;;;;;;0.57;0.57;;;;;;;27.26;41.18;101380.56;6016018;29;20325;-68
2023/08/09 13:10:33;;;;;;;1.67;0.90;;;;;;;25.92;44.86;101371.25;6004966;29;20923;-68
2023/08/09 13:13:55;;;;;;;1.50;0.80;;;;;;;22.79;49.97;101378.72;5999695;29;20659;-69
2023/08/09 13:17:16;;;;;;;2.90;1.25;;;;;;;22.07;51.95;101376.28;6010084;29;20711;-69
2023/08/09 13:20:37;;;;;;;3.38;1.15;;;;;;;21.86;53.62;101376.28;5999065;29;20246;-68
2023/08/09 13:23:57;;;;;;;1.02;0.77;;;;;;;21.32;55.74;101378.66;5998840;29;20636;-68
2023/08/09 13:27:18;;;;;;;2.45;1.10;;;;;;;20.88;57.43;101409.94;6006692;29;20610;-67
2023/08/09 13:30:42;;;;;;;6.35;1.48;;;;;;;19.61;67.12;101436.44;5981796;29;20234;-67
2023/08/09 13:34:03;;;;;;;3.35;1.10;;;;;;;19.19;72.82;101425.88;5999489;29;20266;-67
2023/08/09 13:37:24;;;;;;;1.88;1.15;;;;;;;19.57;71.88;101416.78;6004075;29;20230;-67
2023/08/09 13:40:45;;;;;;;2.03;0.95;;;;;;;19.20;73.45;101419.38;5999467;29;20254;-67
2023/08/09 13:44:06;;;;;;;1.15;1.05;;;;;;;19.13;75.24;101421.97;5999054;29;20242;-67
2023/08/09 13:47:28;;;;;;;0.82;0.63;;;;;;;19.17;75.56;101425.16;5992623;29;20564;-67
2023/08/09 13:50:53;;;;;;;1.42;0.93;;;;;;;19.79;73.88;101415.94;6003166;29;20581;-67
2023/08/09 13:54:14;;;;;;;0.95;0.55;;;;;;;20.07;71.47;101412.66;6004141;29;20243;-66
2023/08/09 13:57:36;;;;;;;1.70;0.90;;;;;;;21.17;66.72;101405.28;6006743;29;20227;-66
2023/08/09 14:00:59;;;;;;;1.55;1.45;;;;;;;21.94;65.24;101416.53;5993644;29;20258;-67
2023/08/09 14:04:21;;;;;;;2.17;2.00;;;;;;;25.81;55.72;101402.38;5981360;29;20243;-66
2023/08/09 14:07:42;;;;;;;1.95;1.08;;;;;;;26.34;50.70;101406.47;6005016;29;20231;-67
2023/08/09 14:11:03;;;;;;;1.73;1.15;;;;;;;26.15;51.88;101413.00;5971421;29;20242;-67
2023/08/09 14:14:24;;;;;;;1.10;0.73;;;;;;;24.18;53.29;101417.47;5997840;29;20238;-67
2023/08/09 14:17:45;;;;;;;0.75;0.70;;;;;;;23.70;54.03;101412.09;6005044;29;20342;-66
2023/08/09 14:21:09;;;;;;;4.88;1.33;;;;;;;23.33;56.90;101411.78;5996291;29;20266;-66
2023/08/09 14:24:29;;;;;;;1.35;0.70;;;;;;;22.30;58.04;101403.50;5999709;29;20231;-67
2023/08/09 14:27:51;;;;;;;2.22;1.20;;;;;;;21.10;62.58;101409.84;6014331;29;20247;-68
2023/08/09 14:31:12;;;;;;;2.75;1.45;;;;;;;20.45;65.04;101426.16;6005487;29;20579;-67
2023/08/09 14:34:33;;;;;;;4.00;0.90;;;;;;;20.03;67.94;101441.41;6009532;29;20508;-67
2023/08/09 14:37:55;;;;;;;1.33;1.20;;;;;;;19.53;71.79;101464.69;6020626;29;20258;-67
2023/08/09 14:41:16;;;;;;;0.80;0.75;;;;;;;18.31;75.34;101460.56;6002043;29;20238;-67
2023/08/09 14:44:37;;;;;;;2.60;1.58;;;;;;;18.23;76.60;101474.22;6005162;29;20248;-67
2023/08/09 14:47:58;;;;;;;1.15;0.95;;;;;;;17.92;79.98;101481.38;5998447;29;20238;-68
2023/08/09 14:51:19;;;;;;;2.67;1.88;;;;;;;17.91;81.49;101487.88;5970555;29;20238;-68
2023/08/09 14:54:41;;;;;;;2.30;1.60;;;;;;;17.98;82.78;101494.34;5988109;29;20235;-68
2023/08/09 14:58:02;;;;;;;3.03;1.77;;;;;;;17.78;83.09;101492.94;6008922;29;20238;-68
2023/08/09 15:01:23;;;;;;;3.50;1.33;;;;;;;17.92;84.15;101492.28;6012726;29;20231;-68
2023/08/09 15:04:45;;;;;;;2.75;1.20;;;;;;;18.38;83.54;101490.75;6000480;29;20251;-68
2023/08/09 15:08:07;;;;;;;1.40;1.10;;;;;;;18.34;81.51;101500.31;6017321;29;20855;-68
2023/08/09 15:11:29;;;;;;;3.50;1.35;;;;;;;18.22;81.79;101493.50;6022179;29;20238;-68
2023/08/09 15:14:50;;;;;;;2.83;1.60;;;;;;;18.46;81.42;101492.69;5991918;29;20678;-68
2023/08/09 15:18:11;;;;;;;1.17;1.08;;;;;;;18.68;80.63;101495.56;6015681;29;20239;-68
2023/08/09 15:21:32;;;;;;;1.33;0.90;;;;;;;19.81;77.31;101489.66;6008642;29;20286;-68
2023/08/09 15:24:57;;;;;;;2.45;1.17;;;;;;;20.96;72.91;101478.38;6005171;29;20258;-67
2023/08/09 15:28:20;;;;;;;1.23;1.10;;;;;;;21.06;69.94;101474.34;5999521;29;20238;-68
2023/08/09 15:31:41;;;;;;;3.47;1.50;;;;;;;21.17;69.72;101475.75;5997390;29;20262;-67
2023/08/09 15:35:02;;;;;;;4.35;1.80;;;;;;;21.43;68.16;101471.47;5993874;29;20262;-67
2023/08/09 15:38:23;;;;;;;6.78;1.52;;;;;;;21.10;66.85;101480.28;5996671;29;20616;-68